sensor_id;sensor_type;location;lat;lon;timestamp;pressure;altitude;pressure_sealevel;temperature;humidity
10946;BME280;5525;42.648;23.368;2023-08-12T00:02:13;95227.03;;;17.08;100.00
10946;BME280;5525;42.648;23.368;2023-08-12T00:04:40;95206.34;;;16.91;100.00
10946;BME280;5525;42.648;23.368;2023-08-12T00:07:07;95226.47;;;17.02;100.00
10946;BME280;5525;42.648;23.368;2023-08-12T00:09:33;95228.00;;;17.00;100.00
10946;BME280;5525;42.648;23.368;2023-08-12T00:12:01;95231.28;;;17.05;100.00
10946;BME280;5525;42.648;23.368;2023-08-12T00:14:29;95224.81;;;16.98;100.00
10946;BME280;5525;42.648;23.368;2023-08-12T00:16:55;95218.66;;;17.01;100.00
10946;BME280;5525;42.648;23.368;2023-08-12T00:19:22;95216.03;;;17.04;100.00
10946;BME280;5525;42.648;23.368;2023-08-12T00:21:48;95222.88;;;16.98;100.00
10946;BME280;5525;42.648;23.368;2023-08-12T00:24:17;95217.06;;;17.00;100.00
10946;BME280;5525;42.648;23.368;2023-08-12T00:26:44;95216.00;;;16.88;100.00
10946;BME280;5525;42.648;23.368;2023-08-12T00:29:12;95217.06;;;17.00;100.00
10946;BME280;5525;42.648;23.368;2023-08-12T00:31:39;95213.81;;;16.94;100.00
10946;BME280;5525;42.648;23.368;2023-08-12T00:34:05;95210.03;;;16.99;100.00
10946;BME280;5525;42.648;23.368;2023-08-12T00:36:32;95215.22;;;16.88;100.00
10946;BME280;5525;42.648;23.368;2023-08-12T00:38:59;95218.03;;;16.92;100.00
10946;BME280;5525;42.648;23.368;2023-08-12T00:41:27;95211.25;;;16.85;100.00
10946;BME280;5525;42.648;23.368;2023-08-12T00:43:53;95213.09;;;16.81;100.00
10946;BME280;5525;42.648;23.368;2023-08-12T00:46:22;95216.81;;;16.89;100.00
10946;BME280;5525;42.648;23.368;2023-08-12T00:48:49;95200.94;;;16.79;100.00
10946;BME280;5525;42.648;23.368;2023-08-12T00:51:16;95213.56;;;16.83;100.00
10946;BME280;5525;42.648;23.368;2023-08-12T00:53:45;95219.97;;;16.91;100.00
10946;BME280;5525;42.648;23.368;2023-08-12T00:56:13;95215.38;;;16.79;100.00
10946;BME280;5525;42.648;23.368;2023-08-12T00:58:40;95214.31;;;16.84;100.00
10946;BME280;5525;42.648;23.368;2023-08-12T01:01:07;95198.72;;;16.69;100.00
10946;BME280;5525;42.648;23.368;2023-08-12T01:03:36;95197.09;;;16.80;100.00
10946;BME280;5525;42.648;23.368;2023-08-12T01:06:03;95212.28;;;16.81;100.00
10946;BME280;5525;42.648;23.368;2023-08-12T01:08:31;95206.91;;;16.69;100.00
10946;BME280;5525;42.648;23.368;2023-08-12T01:11:03;95203.00;;;16.82;100.00
10946;BME280;5525;42.648;23.368;2023-08-12T01:13:37;95200.16;;;16.78;100.00
10946;BME280;5525;42.648;23.368;2023-08-12T01:16:10;95205.16;;;16.76;100.00
10946;BME280;5525;42.648;23.368;2023-08-12T01:18:41;95205.88;;;16.73;100.00
10946;BME280;5525;42.648;23.368;2023-08-12T01:21:11;95202.34;;;16.73;100.00
10946;BME280;5525;42.648;23.368;2023-08-12T01:23:43;95202.59;;;16.68;100.00
10946;BME280;5525;42.648;23.368;2023-08-12T01:26:11;95197.50;;;16.66;100.00
10946;BME280;5525;42.648;23.368;2023-08-12T01:28:38;95201.00;;;16.67;100.00
10946;BME280;5525;42.648;23.368;2023-08-12T01:31:08;95200.03;;;16.59;100.00
10946;BME280;5525;42.648;23.368;2023-08-12T01:33:41;95193.81;;;16.59;100.00
10946;BME280;5525;42.648;23.368;2023-08-12T01:36:11;95201.75;;;16.52;100.00
10946;BME280;5525;42.648;23.368;2023-08-12T01:38:39;95196.13;;;16.33;100.00
10946;BME280;5525;42.648;23.368;2023-08-12T01:41:09;95180.53;;;16.45;100.00
10946;BME280;5525;42.648;23.368;2023-08-12T01:43:37;95195.69;;;16.31;100.00
10946;BME280;5525;42.648;23.368;2023-08-12T01:46:04;95191.75;;;16.16;100.00
10946;BME280;5525;42.648;23.368;2023-08-12T01:48:30;95195.84;;;16.22;100.00
10946;BME280;5525;42.648;23.368;2023-08-12T01:50:57;95197.50;;;16.27;100.00
10946;BME280;5525;42.648;23.368;2023-08-12T01:53:24;95196.94;;;16.33;100.00
10946;BME280;5525;42.648;23.368;2023-08-12T01:55:52;95197.28;;;16.32;100.00
10946;BME280;5525;42.648;23.368;2023-08-12T01:58:20;95197.78;;;16.22;100.00
10946;BME280;5525;42.648;23.368;2023-08-12T02:00:47;95196.63;;;16.23;100.00
10946;BME280;5525;42.648;23.368;2023-08-12T02:03:14;95200.94;;;16.24;100.00
10946;BME280;5525;42.648;23.368;2023-08-12T02:05:40;95197.09;;;16.25;100.00
10946;BME280;5525;42.648;23.368;2023-08-12T02:08:09;95192.03;;;16.11;100.00
10946;BME280;5525;42.648;23.368;2023-08-12T02:10:36;95201.53;;;16.17;100.00
10946;BME280;5525;42.648;23.368;2023-08-12T02:13:03;95195.53;;;16.12;100.00
10946;BME280;5525;42.648;23.368;2023-08-12T02:15:31;95194.84;;;16.15;100.00
10946;BME280;5525;42.648;23.368;2023-08-12T02:17:58;95190.34;;;15.95;100.00
10946;BME280;5525;42.648;23.368;2023-08-12T02:20:25;95198.97;;;15.97;100.00
10946;BME280;5525;42.648;23.368;2023-08-12T02:22:52;95194.34;;;15.97;100.00
10946;BME280;5525;42.648;23.368;2023-08-12T02:25:18;95197.16;;;16.01;100.00
10946;BME280;5525;42.648;23.368;2023-08-12T02:27:45;95192.16;;;16.03;100.00
10946;BME280;5525;42.648;23.368;2023-08-12T02:30:12;95202.59;;;16.01;100.00
10946;BME280;5525;42.648;23.368;2023-08-12T02:32:40;95206.16;;;15.89;100.00
10946;BME280;5525;42.648;23.368;2023-08-12T02:35:10;95200.47;;;15.82;100.00
10946;BME280;5525;42.648;23.368;2023-08-12T02:37:36;95199.56;;;15.90;100.00
10946;BME280;5525;42.648;23.368;2023-08-12T02:40:04;95195.16;;;15.86;100.00
10946;BME280;5525;42.648;23.368;2023-08-12T02:42:31;95207.97;;;15.85;100.00
10946;BME280;5525;42.648;23.368;2023-08-12T02:44:58;95211.81;;;15.84;100.00
10946;BME280;5525;42.648;23.368;2023-08-12T02:47:26;95194.25;;;15.82;100.00
10946;BME280;5525;42.648;23.368;2023-08-12T02:49:54;95204.19;;;16.02;100.00
10946;BME280;5525;42.648;23.368;2023-08-12T02:52:21;95215.53;;;16.04;100.00
10946;BME280;5525;42.648;23.368;2023-08-12T02:54:48;95213.94;;;16.03;100.00
10946;BME280;5525;42.648;23.368;2023-08-12T02:57:14;95217.34;;;16.00;100.00
10946;BME280;5525;42.648;23.368;2023-08-12T02:59:41;95219.69;;;15.74;100.00
10946;BME280;5525;42.648;23.368;2023-08-12T03:02:08;95224.75;;;15.87;100.00
10946;BME280;5525;42.648;23.368;2023-08-12T03:04:36;95215.56;;;15.92;100.00
10946;BME280;5525;42.648;23.368;2023-08-12T03:07:04;95219.09;;;15.92;100.00
10946;BME280;5525;42.648;23.368;2023-08-12T03:09:30;95227.03;;;15.97;100.00
10946;BME280;5525;42.648;23.368;2023-08-12T03:11:58;95219.69;;;15.62;100.00
10946;BME280;5525;42.648;23.368;2023-08-12T03:14:28;95225.91;;;15.62;100.00
10946;BME280;5525;42.648;23.368;2023-08-12T03:16:56;95227.19;;;15.53;100.00
10946;BME280;5525;42.648;23.368;2023-08-12T03:19:22;95234.28;;;15.33;100.00
10946;BME280;5525;42.648;23.368;2023-08-12T03:21:49;95227.47;;;15.15;100.00
10946;BME280;5525;42.648;23.368;2023-08-12T03:24:17;95231.75;;;15.04;100.00
10946;BME280;5525;42.648;23.368;2023-08-12T03:26:44;95232.44;;;15.01;100.00
10946;BME280;5525;42.648;23.368;2023-08-12T03:29:10;95236.63;;;14.98;100.00
10946;BME280;5525;42.648;23.368;2023-08-12T03:31:37;95226.56;;;14.99;100.00
10946;BME280;5525;42.648;23.368;2023-08-12T03:34:03;95231.19;;;14.98;100.00
10946;BME280;5525;42.648;23.368;2023-08-12T03:36:31;95234.81;;;15.02;100.00
10946;BME280;5525;42.648;23.368;2023-08-12T03:38:58;95234.59;;;14.95;100.00
10946;BME280;5525;42.648;23.368;2023-08-12T03:41:27;95233.44;;;14.96;100.00
10946;BME280;5525;42.648;23.368;2023-08-12T03:43:53;95240.03;;;14.95;100.00
10946;BME280;5525;42.648;23.368;2023-08-12T03:46:20;95239.34;;;14.86;100.00
10946;BME280;5525;42.648;23.368;2023-08-12T03:48:47;95241.59;;;14.84;100.00
10946;BME280;5525;42.648;23.368;2023-08-12T03:51:14;95246.69;;;14.86;100.00
10946;BME280;5525;42.648;23.368;2023-08-12T03:53:40;95243.09;;;14.94;100.00
10946;BME280;5525;42.648;23.368;2023-08-12T03:56:07;95247.25;;;14.91;100.00
10946;BME280;5525;42.648;23.368;2023-08-12T03:58:35;95251.13;;;15.02;100.00
10946;BME280;5525;42.648;23.368;2023-08-12T04:01:02;95242.91;;;15.11;100.00
10946;BME280;5525;42.648;23.368;2023-08-12T04:03:29;95244.81;;;15.22;100.00
10946;BME280;5525;42.648;23.368;2023-08-12T04:05:55;95244.00;;;15.10;100.00
10946;BME280;5525;42.648;23.368;2023-08-12T04:08:23;95243.78;;;15.03;100.00
10946;BME280;5525;42.648;23.368;2023-08-12T04:10:50;95234.25;;;14.85;100.00
10946;BME280;5525;42.648;23.368;2023-08-12T04:13:17;95248.44;;;15.14;100.00
10946;BME280;5525;42.648;23.368;2023-08-12T04:15:49;95242.00;;;15.19;100.00
10946;BME280;5525;42.648;23.368;2023-08-12T04:18:18;95242.56;;;15.37;100.00
10946;BME280;5525;42.648;23.368;2023-08-12T04:20:46;95248.91;;;15.28;100.00
10946;BME280;5525;42.648;23.368;2023-08-12T04:23:14;95242.78;;;15.19;100.00
10946;BME280;5525;42.648;23.368;2023-08-12T04:25:43;95240.41;;;15.18;100.00
10946;BME280;5525;42.648;23.368;2023-08-12T04:28:10;95246.31;;;15.32;100.00
10946;BME280;5525;42.648;23.368;2023-08-12T04:30:41;95249.16;;;15.96;100.00
10946;BME280;5525;42.648;23.368;2023-08-12T04:33:09;95250.63;;;17.78;100.00
10946;BME280;5525;42.648;23.368;2023-08-12T04:35:36;95239.25;;;19.66;100.00
10946;BME280;5525;42.648;23.368;2023-08-12T04:38:03;95246.31;;;21.48;100.00
10946;BME280;5525;42.648;23.368;2023-08-12T04:40:30;95247.34;;;22.96;100.00
10946;BME280;5525;42.648;23.368;2023-08-12T04:42:58;95253.84;;;24.19;100.00
10946;BME280;5525;42.648;23.368;2023-08-12T04:45:25;95258.22;;;25.42;100.00
10946;BME280;5525;42.648;23.368;2023-08-12T04:47:52;95251.16;;;25.34;97.38
10946;BME280;5525;42.648;23.368;2023-08-12T04:50:20;95256.06;;;26.66;88.67
10946;BME280;5525;42.648;23.368;2023-08-12T04:52:48;95266.84;;;27.24;81.32
10946;BME280;5525;42.648;23.368;2023-08-12T04:55:15;95262.56;;;27.79;78.66
10946;BME280;5525;42.648;23.368;2023-08-12T04:57:42;95267.56;;;28.38;71.81
10946;BME280;5525;42.648;23.368;2023-08-12T05:00:09;95269.88;;;29.08;68.42
10946;BME280;5525;42.648;23.368;2023-08-12T05:02:36;95272.28;;;29.65;64.20
10946;BME280;5525;42.648;23.368;2023-08-12T05:05:04;95274.69;;;29.83;62.00
10946;BME280;5525;42.648;23.368;2023-08-12T05:07:32;95277.59;;;30.59;57.60
10946;BME280;5525;42.648;23.368;2023-08-12T05:09:59;95288.69;;;31.36;55.38
10946;BME280;5525;42.648;23.368;2023-08-12T05:12:27;95278.38;;;31.74;53.30
10946;BME280;5525;42.648;23.368;2023-08-12T05:14:55;95280.97;;;32.31;49.33
10946;BME280;5525;42.648;23.368;2023-08-12T05:17:21;95284.59;;;32.91;47.19
10946;BME280;5525;42.648;23.368;2023-08-12T05:19:48;95288.34;;;33.31;45.42
10946;BME280;5525;42.648;23.368;2023-08-12T05:22:15;95285.50;;;32.76;45.51
10946;BME280;5525;42.648;23.368;2023-08-12T05:24:43;95281.53;;;32.51;46.90
10946;BME280;5525;42.648;23.368;2023-08-12T05:27:10;95285.81;;;33.24;44.96
10946;BME280;5525;42.648;23.368;2023-08-12T05:29:38;95285.25;;;31.98;46.12
10946;BME280;5525;42.648;23.368;2023-08-12T05:32:05;95289.44;;;31.78;47.28
10946;BME280;5525;42.648;23.368;2023-08-12T05:34:31;95288.47;;;30.70;50.96
10946;BME280;5525;42.648;23.368;2023-08-12T05:36:58;95284.22;;;29.26;55.33
10946;BME280;5525;42.648;23.368;2023-08-12T05:39:25;95287.53;;;29.77;54.08
10946;BME280;5525;42.648;23.368;2023-08-12T05:41:53;95291.00;;;29.06;55.71
10946;BME280;5525;42.648;23.368;2023-08-12T05:44:19;95288.09;;;28.44;61.08
10946;BME280;5525;42.648;23.368;2023-08-12T05:46:46;95290.28;;;29.96;56.19
10946;BME280;5525;42.648;23.368;2023-08-12T05:49:15;95298.69;;;30.44;53.25
10946;BME280;5525;42.648;23.368;2023-08-12T05:51:42;95287.53;;;30.76;51.41
10946;BME280;5525;42.648;23.368;2023-08-12T05:54:09;95284.53;;;31.82;48.06
10946;BME280;5525;42.648;23.368;2023-08-12T05:56:36;95287.84;;;33.24;44.12
10946;BME280;5525;42.648;23.368;2023-08-12T05:59:04;95289.72;;;32.46;42.96
10946;BME280;5525;42.648;23.368;2023-08-12T06:01:31;95283.47;;;32.04;42.50
10946;BME280;5525;42.648;23.368;2023-08-12T06:03:58;95276.84;;;32.11;42.84
10946;BME280;5525;42.648;23.368;2023-08-12T06:06:25;95281.50;;;33.11;40.40
10946;BME280;5525;42.648;23.368;2023-08-12T06:08:52;95280.66;;;33.87;37.70
10946;BME280;5525;42.648;23.368;2023-08-12T06:11:19;95283.84;;;33.34;38.54
10946;BME280;5525;42.648;23.368;2023-08-12T06:13:45;95275.91;;;34.06;38.59
10946;BME280;5525;42.648;23.368;2023-08-12T06:16:13;95274.63;;;34.86;36.36
10946;BME280;5525;42.648;23.368;2023-08-12T06:18:40;95273.59;;;33.52;37.99
10946;BME280;5525;42.648;23.368;2023-08-12T06:21:08;95264.97;;;33.25;38.37
10946;BME280;5525;42.648;23.368;2023-08-12T06:23:35;95272.69;;;34.38;36.42
10946;BME280;5525;42.648;23.368;2023-08-12T06:26:01;95275.97;;;34.46;35.48
10946;BME280;5525;42.648;23.368;2023-08-12T06:28:28;95270.34;;;33.84;37.22
10946;BME280;5525;42.648;23.368;2023-08-12T06:30:55;95268.31;;;34.06;37.42
10946;BME280;5525;42.648;23.368;2023-08-12T06:33:25;95270.63;;;33.99;36.78
10946;BME280;5525;42.648;23.368;2023-08-12T06:35:52;95260.09;;;33.17;37.76
10946;BME280;5525;42.648;23.368;2023-08-12T06:38:19;95261.69;;;34.80;35.96
10946;BME280;5525;42.648;23.368;2023-08-12T06:40:47;95267.59;;;34.64;35.73
10946;BME280;5525;42.648;23.368;2023-08-12T06:43:14;95258.84;;;34.13;37.04
10946;BME280;5525;42.648;23.368;2023-08-12T06:45:41;95262.28;;;34.66;37.07
10946;BME280;5525;42.648;23.368;2023-08-12T06:48:08;95248.72;;;34.55;35.04
10946;BME280;5525;42.648;23.368;2023-08-12T06:50:39;95260.31;;;35.02;34.69
10946;BME280;5525;42.648;23.368;2023-08-12T06:53:05;95258.91;;;35.16;34.77
10946;BME280;5525;42.648;23.368;2023-08-12T06:55:32;95244.53;;;34.78;34.94
10946;BME280;5525;42.648;23.368;2023-08-12T06:57:59;95260.41;;;36.31;32.33
10946;BME280;5525;42.648;23.368;2023-08-12T07:00:26;95254.88;;;35.44;33.72
10946;BME280;5525;42.648;23.368;2023-08-12T07:02:53;95256.03;;;37.09;31.40
10946;BME280;5525;42.648;23.368;2023-08-12T07:05:20;95261.34;;;38.13;30.37
10946;BME280;5525;42.648;23.368;2023-08-12T07:07:48;95254.63;;;37.96;29.81
10946;BME280;5525;42.648;23.368;2023-08-12T07:10:15;95258.38;;;39.06;29.16
10946;BME280;5525;42.648;23.368;2023-08-12T07:12:43;95250.84;;;38.48;28.00
10946;BME280;5525;42.648;23.368;2023-08-12T07:15:11;95257.00;;;39.21;27.51
10946;BME280;5525;42.648;23.368;2023-08-12T07:17:37;95256.16;;;40.06;26.47
10946;BME280;5525;42.648;23.368;2023-08-12T07:20:06;95257.41;;;40.68;25.77
10946;BME280;5525;42.648;23.368;2023-08-12T07:22:33;95250.69;;;38.37;27.02
10946;BME280;5525;42.648;23.368;2023-08-12T07:25:02;95250.91;;;39.23;26.76
10946;BME280;5525;42.648;23.368;2023-08-12T07:27:29;95257.69;;;42.09;24.69
10946;BME280;5525;42.648;23.368;2023-08-12T07:29:56;95259.59;;;40.84;24.99
10946;BME280;5525;42.648;23.368;2023-08-12T07:32:22;95245.34;;;38.73;26.98
10946;BME280;5525;42.648;23.368;2023-08-12T07:34:49;95230.06;;;36.91;28.51
10946;BME280;5525;42.648;23.368;2023-08-12T07:37:15;95239.66;;;37.75;28.18
10946;BME280;5525;42.648;23.368;2023-08-12T07:39:42;95249.94;;;39.31;26.37
10946;BME280;5525;42.648;23.368;2023-08-12T07:42:10;95240.19;;;37.36;28.45
10946;BME280;5525;42.648;23.368;2023-08-12T07:44:37;95236.97;;;39.19;26.77
10946;BME280;5525;42.648;23.368;2023-08-12T07:47:04;95247.91;;;41.99;23.44
10946;BME280;5525;42.648;23.368;2023-08-12T07:49:31;95241.97;;;41.92;23.44
10946;BME280;5525;42.648;23.368;2023-08-12T07:51:58;95248.16;;;42.40;22.76
10946;BME280;5525;42.648;23.368;2023-08-12T07:54:24;95246.38;;;42.26;23.07
10946;BME280;5525;42.648;23.368;2023-08-12T07:56:51;95237.78;;;41.70;22.59
10946;BME280;5525;42.648;23.368;2023-08-12T07:59:20;95237.13;;;40.75;23.95
10946;BME280;5525;42.648;23.368;2023-08-12T08:01:46;95228.78;;;41.08;23.21
10946;BME280;5525;42.648;23.368;2023-08-12T08:04:13;95220.06;;;39.45;24.92
10946;BME280;5525;42.648;23.368;2023-08-12T08:06:40;95223.03;;;38.96;25.80
10946;BME280;5525;42.648;23.368;2023-08-12T08:09:07;95228.03;;;42.54;22.06
10946;BME280;5525;42.648;23.368;2023-08-12T08:11:34;95233.88;;;43.00;21.31
10946;BME280;5525;42.648;23.368;2023-08-12T08:14:01;95234.56;;;43.75;21.06
10946;BME280;5525;42.648;23.368;2023-08-12T08:16:29;95228.31;;;43.82;20.60
10946;BME280;5525;42.648;23.368;2023-08-12T08:18:56;95238.19;;;44.99;19.60
10946;BME280;5525;42.648;23.368;2023-08-12T08:21:23;95231.94;;;44.77;19.84
10946;BME280;5525;42.648;23.368;2023-08-12T08:23:50;95229.16;;;44.41;19.50
10946;BME280;5525;42.648;23.368;2023-08-12T08:26:17;95218.22;;;41.08;21.56
10946;BME280;5525;42.648;23.368;2023-08-12T08:28:44;95212.19;;;38.68;23.58
10946;BME280;5525;42.648;23.368;2023-08-12T08:31:10;95206.19;;;41.24;21.96
10946;BME280;5525;42.648;23.368;2023-08-12T08:33:38;95216.69;;;41.99;21.24
10946;BME280;5525;42.648;23.368;2023-08-12T08:36:05;95221.22;;;42.96;20.52
10946;BME280;5525;42.648;23.368;2023-08-12T08:38:32;95199.63;;;40.96;21.51
10946;BME280;5525;42.648;23.368;2023-08-12T08:40:59;95211.41;;;42.86;20.18
10946;BME280;5525;42.648;23.368;2023-08-12T08:43:27;95207.28;;;39.80;22.71
10946;BME280;5525;42.648;23.368;2023-08-12T08:45:54;95203.63;;;41.21;22.22
10946;BME280;5525;42.648;23.368;2023-08-12T08:48:21;95199.09;;;41.90;21.33
10946;BME280;5525;42.648;23.368;2023-08-12T08:50:50;95196.59;;;40.58;22.38
10946;BME280;5525;42.648;23.368;2023-08-12T08:53:18;95197.81;;;41.85;21.42
10946;BME280;5525;42.648;23.368;2023-08-12T08:55:45;95200.00;;;44.00;19.03
10946;BME280;5525;42.648;23.368;2023-08-12T08:58:12;95211.59;;;44.61;18.87
10946;BME280;5525;42.648;23.368;2023-08-12T09:00:39;95216.50;;;44.66;18.47
10946;BME280;5525;42.648;23.368;2023-08-12T09:03:06;95198.34;;;44.10;18.96
10946;BME280;5525;42.648;23.368;2023-08-12T09:05:35;95190.72;;;43.54;19.57
10946;BME280;5525;42.648;23.368;2023-08-12T09:08:07;95199.41;;;45.15;18.15
10946;BME280;5525;42.648;23.368;2023-08-12T09:10:39;95194.72;;;44.69;18.28
10946;BME280;5525;42.648;23.368;2023-08-12T09:13:07;95188.81;;;44.37;18.62
10946;BME280;5525;42.648;23.368;2023-08-12T09:15:34;95193.22;;;43.68;18.69
10946;BME280;5525;42.648;23.368;2023-08-12T09:18:01;95192.47;;;44.56;18.32
10946;BME280;5525;42.648;23.368;2023-08-12T09:20:27;95188.31;;;44.33;18.21
10946;BME280;5525;42.648;23.368;2023-08-12T09:22:58;95174.06;;;42.54;19.69
10946;BME280;5525;42.648;23.368;2023-08-12T09:25:29;95184.69;;;43.68;18.96
10946;BME280;5525;42.648;23.368;2023-08-12T09:27:58;95173.63;;;44.78;18.60
10946;BME280;5525;42.648;23.368;2023-08-12T09:30:28;95173.44;;;43.52;18.86
10946;BME280;5525;42.648;23.368;2023-08-12T09:32:59;95171.00;;;43.67;18.61
10946;BME280;5525;42.648;23.368;2023-08-12T09:35:33;95156.03;;;41.63;20.39
10946;BME280;5525;42.648;23.368;2023-08-12T09:38:01;95161.97;;;44.27;18.58
10946;BME280;5525;42.648;23.368;2023-08-12T09:40:30;95160.59;;;43.69;18.60
10946;BME280;5525;42.648;23.368;2023-08-12T09:42:57;95156.16;;;45.48;17.82
10946;BME280;5525;42.648;23.368;2023-08-12T09:45:25;95149.66;;;43.44;19.06
10946;BME280;5525;42.648;23.368;2023-08-12T09:47:52;95153.91;;;44.80;18.24
10946;BME280;5525;42.648;23.368;2023-08-12T09:50:21;95145.38;;;44.31;18.32
10946;BME280;5525;42.648;23.368;2023-08-12T09:52:50;95143.13;;;42.34;19.70
10946;BME280;5525;42.648;23.368;2023-08-12T09:55:19;95142.31;;;42.45;19.65
10946;BME280;5525;42.648;23.368;2023-08-12T09:57:50;95144.59;;;44.01;18.30
10946;BME280;5525;42.648;23.368;2023-08-12T10:00:18;95129.09;;;42.58;19.28
10946;BME280;5525;42.648;23.368;2023-08-12T10:02:46;95121.03;;;42.79;19.66
10946;BME280;5525;42.648;23.368;2023-08-12T10:05:18;95134.13;;;44.15;18.63
10946;BME280;5525;42.648;23.368;2023-08-12T10:07:46;95121.69;;;43.48;19.56
10946;BME280;5525;42.648;23.368;2023-08-12T10:10:14;95113.47;;;41.86;20.24
10946;BME280;5525;42.648;23.368;2023-08-12T10:12:41;95116.88;;;42.85;19.22
10946;BME280;5525;42.648;23.368;2023-08-12T10:15:10;95124.94;;;43.68;18.57
10946;BME280;5525;42.648;23.368;2023-08-12T10:17:38;95118.59;;;43.05;19.18
10946;BME280;5525;42.648;23.368;2023-08-12T10:20:06;95114.16;;;43.56;18.78
10946;BME280;5525;42.648;23.368;2023-08-12T10:22:34;95109.81;;;43.03;18.70
10946;BME280;5525;42.648;23.368;2023-08-12T10:25:02;95113.34;;;43.20;18.55
10946;BME280;5525;42.648;23.368;2023-08-12T10:27:29;95116.00;;;43.88;18.14
10946;BME280;5525;42.648;23.368;2023-08-12T10:29:56;95106.34;;;43.62;18.03
10946;BME280;5525;42.648;23.368;2023-08-12T10:32:25;95109.53;;;43.88;18.05
10946;BME280;5525;42.648;23.368;2023-08-12T10:35:43;95102.63;;;45.54;16.53
10946;BME280;5525;42.648;23.368;2023-08-12T10:38:12;95101.56;;;44.83;16.72
10946;BME280;5525;42.648;23.368;2023-08-12T10:40:39;95094.66;;;44.00;17.46
10946;BME280;5525;42.648;23.368;2023-08-12T10:43:06;95088.59;;;44.09;17.27
10946;BME280;5525;42.648;23.368;2023-08-12T10:45:44;95088.84;;;44.84;16.83
10946;BME280;5525;42.648;23.368;2023-08-12T10:48:17;95089.06;;;44.86;17.03
10946;BME280;5525;42.648;23.368;2023-08-12T10:50:48;95078.81;;;44.77;16.93
10946;BME280;5525;42.648;23.368;2023-08-12T10:53:26;95087.31;;;45.88;16.52
10946;BME280;5525;42.648;23.368;2023-08-12T10:55:57;95077.19;;;45.56;16.21
10946;BME280;5525;42.648;23.368;2023-08-12T10:58:27;95067.00;;;42.16;18.10
10946;BME280;5525;42.648;23.368;2023-08-12T11:00:54;95067.50;;;42.31;18.29
10946;BME280;5525;42.648;23.368;2023-08-12T11:03:21;95071.75;;;43.58;16.91
10946;BME280;5525;42.648;23.368;2023-08-12T11:05:50;95077.78;;;43.49;16.57
10946;BME280;5525;42.648;23.368;2023-08-12T11:08:25;95067.78;;;44.20;16.03
10946;BME280;5525;42.648;23.368;2023-08-12T11:10:55;95055.94;;;43.27;16.59
10946;BME280;5525;42.648;23.368;2023-08-12T11:13:22;95059.00;;;43.94;16.53
10946;BME280;5525;42.648;23.368;2023-08-12T11:15:49;95052.75;;;43.36;17.19
10946;BME280;5525;42.648;23.368;2023-08-12T11:18:18;95056.56;;;44.03;16.93
10946;BME280;5525;42.648;23.368;2023-08-12T11:20:47;95062.25;;;43.79;16.96
10946;BME280;5525;42.648;23.368;2023-08-12T11:23:16;95055.41;;;44.41;16.75
10946;BME280;5525;42.648;23.368;2023-08-12T11:25:45;95040.41;;;42.19;17.96
10946;BME280;5525;42.648;23.368;2023-08-12T11:28:17;95027.56;;;40.91;19.47
10946;BME280;5525;42.648;23.368;2023-08-12T11:30:45;95033.19;;;40.80;19.23
10946;BME280;5525;42.648;23.368;2023-08-12T11:33:16;95031.28;;;39.60;20.25
10946;BME280;5525;42.648;23.368;2023-08-12T11:35:43;95031.53;;;39.25;20.31
10946;BME280;5525;42.648;23.368;2023-08-12T11:38:12;95030.16;;;39.83;19.96
10946;BME280;5525;42.648;23.368;2023-08-12T11:40:44;95029.72;;;39.28;19.63
10946;BME280;5525;42.648;23.368;2023-08-12T11:43:11;95020.53;;;39.02;19.99
10946;BME280;5525;42.648;23.368;2023-08-12T11:45:41;95020.28;;;38.14;20.58
10946;BME280;5525;42.648;23.368;2023-08-12T11:48:09;95021.00;;;35.82;22.53
10946;BME280;5525;42.648;23.368;2023-08-12T11:50:36;95016.03;;;34.06;24.09
10946;BME280;5525;42.648;23.368;2023-08-12T11:53:05;95007.81;;;32.10;26.41
10946;BME280;5525;42.648;23.368;2023-08-12T11:55:33;95010.66;;;33.63;24.11
10946;BME280;5525;42.648;23.368;2023-08-12T11:58:01;95005.03;;;33.54;24.14
10946;BME280;5525;42.648;23.368;2023-08-12T12:00:28;95009.84;;;33.54;23.28
10946;BME280;5525;42.648;23.368;2023-08-12T12:02:56;95002.97;;;34.40;22.74
10946;BME280;5525;42.648;23.368;2023-08-12T12:05:25;95001.09;;;34.37;23.00
10946;BME280;5525;42.648;23.368;2023-08-12T12:07:52;94998.91;;;33.95;23.06
10946;BME280;5525;42.648;23.368;2023-08-12T12:10:20;94996.63;;;33.06;24.56
10946;BME280;5525;42.648;23.368;2023-08-12T12:12:48;94999.44;;;32.75;24.43
10946;BME280;5525;42.648;23.368;2023-08-12T12:15:16;94994.81;;;32.16;24.70
10946;BME280;5525;42.648;23.368;2023-08-12T12:17:45;94998.38;;;32.17;24.87
10946;BME280;5525;42.648;23.368;2023-08-12T12:20:11;94996.63;;;31.89;25.04
10946;BME280;5525;42.648;23.368;2023-08-12T12:22:42;94990.66;;;31.99;25.28
10946;BME280;5525;42.648;23.368;2023-08-12T12:25:12;94972.19;;;31.21;27.18
10946;BME280;5525;42.648;23.368;2023-08-12T12:27:42;94973.09;;;30.93;28.03
10946;BME280;5525;42.648;23.368;2023-08-12T12:30:12;94971.50;;;31.04;27.31
10946;BME280;5525;42.648;23.368;2023-08-12T12:32:43;94975.63;;;31.12;28.87
10946;BME280;5525;42.648;23.368;2023-08-12T12:35:12;94974.41;;;31.39;29.05
10946;BME280;5525;42.648;23.368;2023-08-12T12:37:38;94973.72;;;31.22;28.94
10946;BME280;5525;42.648;23.368;2023-08-12T12:40:06;94962.84;;;30.77;30.66
10946;BME280;5525;42.648;23.368;2023-08-12T12:42:33;94966.00;;;31.26;30.68
10946;BME280;5525;42.648;23.368;2023-08-12T12:45:00;94961.25;;;31.01;32.10
10946;BME280;5525;42.648;23.368;2023-08-12T12:47:26;94958.34;;;31.05;32.23
10946;BME280;5525;42.648;23.368;2023-08-12T12:49:54;94960.56;;;30.72;33.06
10946;BME280;5525;42.648;23.368;2023-08-12T12:52:21;94955.13;;;30.94;33.66
10946;BME280;5525;42.648;23.368;2023-08-12T12:54:48;94952.97;;;30.35;33.75
10946;BME280;5525;42.648;23.368;2023-08-12T12:57:15;94954.75;;;30.42;33.61
10946;BME280;5525;42.648;23.368;2023-08-12T12:59:41;94949.94;;;29.89;34.94
10946;BME280;5525;42.648;23.368;2023-08-12T13:02:08;94947.38;;;29.49;35.45